sensor_id;sensor_type;location;lat;lon;timestamp;pressure;altitude;pressure_sealevel;temperature;humidity
13068;BME280;6600;51.362;6.686;2022-09-16T00:01:14;100607.84;;;13.74;100.00
13068;BME280;6600;51.362;6.686;2022-09-16T00:03:40;100616.97;;;13.73;100.00
13068;BME280;6600;51.362;6.686;2022-09-16T00:06:06;100614.28;;;13.73;100.00
13068;BME280;6600;51.362;6.686;2022-09-16T00:08:32;100620.84;;;13.77;100.00
13068;BME280;6600;51.362;6.686;2022-09-16T00:11:01;100618.53;;;13.69;100.00
13068;BME280;6600;51.362;6.686;2022-09-16T00:13:26;100617.09;;;13.78;100.00
13068;BME280;6600;51.362;6.686;2022-09-16T00:15:52;100619.66;;;13.73;100.00
13068;BME280;6600;51.362;6.686;2022-09-16T00:18:18;100623.44;;;13.72;100.00
13068;BME280;6600;51.362;6.686;2022-09-16T00:20:51;100623.09;;;13.68;100.00
13068;BME280;6600;51.362;6.686;2022-09-16T00:23:18;100620.53;;;13.61;100.00
13068;BME280;6600;51.362;6.686;2022-09-16T00:25:49;100621.47;;;13.67;100.00
13068;BME280;6600;51.362;6.686;2022-09-16T00:28:22;100624.50;;;13.59;100.00
13068;BME280;6600;51.362;6.686;2022-09-16T00:30:48;100621.13;;;13.52;100.00
13068;BME280;6600;51.362;6.686;2022-09-16T00:33:14;100626.06;;;13.43;100.00
13068;BME280;6600;51.362;6.686;2022-09-16T00:35:40;100621.63;;;13.37;100.00
13068;BME280;6600;51.362;6.686;2022-09-16T00:38:05;100623.94;;;13.45;100.00
13068;BME280;6600;51.362;6.686;2022-09-16T00:40:32;100620.00;;;13.36;100.00
13068;BME280;6600;51.362;6.686;2022-09-16T00:42:57;100626.19;;;13.37;100.00
13068;BME280;6600;51.362;6.686;2022-09-16T00:45:25;100619.38;;;13.34;100.00
13068;BME280;6600;51.362;6.686;2022-09-16T00:47:59;100623.50;;;13.25;100.00
13068;BME280;6600;51.362;6.686;2022-09-16T00:50:35;100620.72;;;13.20;100.00
13068;BME280;6600;51.362;6.686;2022-09-16T00:53:04;100612.03;;;13.18;100.00
13068;BME280;6600;51.362;6.686;2022-09-16T00:55:32;100617.19;;;13.20;100.00
13068;BME280;6600;51.362;6.686;2022-09-16T00:58:05;100622.09;;;13.23;100.00
13068;BME280;6600;51.362;6.686;2022-09-16T01:00:34;100618.25;;;13.19;100.00
13068;BME280;6600;51.362;6.686;2022-09-16T01:02:59;100625.03;;;13.21;100.00
13068;BME280;6600;51.362;6.686;2022-09-16T01:05:25;100627.72;;;13.21;100.00
13068;BME280;6600;51.362;6.686;2022-09-16T01:07:53;100625.50;;;13.18;100.00
13068;BME280;6600;51.362;6.686;2022-09-16T01:10:22;100623.28;;;13.15;100.00
13068;BME280;6600;51.362;6.686;2022-09-16T01:12:51;100622.22;;;13.16;100.00
13068;BME280;6600;51.362;6.686;2022-09-16T01:15:18;100622.81;;;13.18;100.00
13068;BME280;6600;51.362;6.686;2022-09-16T01:35:19;100623.41;;;13.20;100.00
13068;BME280;6600;51.362;6.686;2022-09-16T01:38:00;100618.13;;;13.25;100.00
13068;BME280;6600;51.362;6.686;2022-09-16T01:43:24;100612.75;;;13.25;100.00
13068;BME280;6600;51.362;6.686;2022-09-16T01:51:18;100614.72;;;13.18;100.00
13068;BME280;6600;51.362;6.686;2022-09-16T01:56:47;100611.56;;;13.21;100.00
13068;BME280;6600;51.362;6.686;2022-09-16T01:59:38;100618.59;;;13.22;100.00
13068;BME280;6600;51.362;6.686;2022-09-16T02:02:20;100615.78;;;13.17;100.00
13068;BME280;6600;51.362;6.686;2022-09-16T02:04:53;100609.34;;;13.18;100.00
13068;BME280;6600;51.362;6.686;2022-09-16T02:07:26;100606.19;;;13.21;100.00
13068;BME280;6600;51.362;6.686;2022-09-16T02:09:57;100599.19;;;13.20;100.00
13068;BME280;6600;51.362;6.686;2022-09-16T02:12:28;100595.91;;;13.18;100.00
13068;BME280;6600;51.362;6.686;2022-09-16T02:15:03;100602.94;;;13.19;100.00
13068;BME280;6600;51.362;6.686;2022-09-16T02:17:32;100597.91;;;13.23;100.00
13068;BME280;6600;51.362;6.686;2022-09-16T02:20:07;100603.28;;;13.23;100.00
13068;BME280;6600;51.362;6.686;2022-09-16T02:22:41;100599.88;;;13.27;100.00
13068;BME280;6600;51.362;6.686;2022-09-16T02:25:08;100607.34;;;13.25;100.00
13068;BME280;6600;51.362;6.686;2022-09-16T02:27:35;100602.44;;;13.22;100.00
13068;BME280;6600;51.362;6.686;2022-09-16T02:30:08;100596.16;;;13.17;100.00
13068;BME280;6600;51.362;6.686;2022-09-16T02:32:38;100599.06;;;13.15;100.00
13068;BME280;6600;51.362;6.686;2022-09-16T02:35:09;100600.34;;;13.12;100.00
13068;BME280;6600;51.362;6.686;2022-09-16T02:37:41;100592.50;;;13.11;100.00
13068;BME280;6600;51.362;6.686;2022-09-16T02:40:14;100599.38;;;13.07;100.00
13068;BME280;6600;51.362;6.686;2022-09-16T02:42:41;100593.19;;;13.06;100.00
13068;BME280;6600;51.362;6.686;2022-09-16T02:45:07;100591.94;;;13.09;100.00
13068;BME280;6600;51.362;6.686;2022-09-16T02:47:59;100586.09;;;13.12;100.00
13068;BME280;6600;51.362;6.686;2022-09-16T02:50:29;100580.13;;;13.10;100.00
13068;BME280;6600;51.362;6.686;2022-09-16T02:53:03;100591.47;;;13.12;100.00
13068;BME280;6600;51.362;6.686;2022-09-16T02:58:05;100593.69;;;13.15;100.00
13068;BME280;6600;51.362;6.686;2022-09-16T03:00:33;100598.16;;;13.09;100.00
13068;BME280;6600;51.362;6.686;2022-09-16T03:03:01;100594.72;;;13.14;100.00
13068;BME280;6600;51.362;6.686;2022-09-16T03:05:27;100587.72;;;13.13;100.00
13068;BME280;6600;51.362;6.686;2022-09-16T03:07:54;100595.91;;;13.18;100.00
13068;BME280;6600;51.362;6.686;2022-09-16T03:10:24;100588.53;;;13.13;100.00
13068;BME280;6600;51.362;6.686;2022-09-16T03:13:04;100590.06;;;13.09;100.00
13068;BME280;6600;51.362;6.686;2022-09-16T03:21:08;100592.75;;;13.09;100.00
13068;BME280;6600;51.362;6.686;2022-09-16T03:29:16;100596.84;;;13.12;100.00
13068;BME280;6600;51.362;6.686;2022-09-16T03:36:50;100591.47;;;13.12;100.00
13068;BME280;6600;51.362;6.686;2022-09-16T03:39:17;100586.09;;;13.12;100.00
13068;BME280;6600;51.362;6.686;2022-09-16T03:41:43;100584.78;;;13.14;100.00
13068;BME280;6600;51.362;6.686;2022-09-16T03:44:09;100574.13;;;13.08;100.00
13068;BME280;6600;51.362;6.686;2022-09-16T03:46:34;100583.50;;;13.05;100.00
13068;BME280;6600;51.362;6.686;2022-09-16T03:49:00;100583.97;;;13.02;100.00
13068;BME280;6600;51.362;6.686;2022-09-16T03:51:26;100579.28;;;12.98;100.00
13068;BME280;6600;51.362;6.686;2022-09-16T03:53:52;100574.59;;;12.93;100.00
13068;BME280;6600;51.362;6.686;2022-09-16T03:56:17;100570.97;;;12.88;100.00
13068;BME280;6600;51.362;6.686;2022-09-16T03:58:43;100580.69;;;12.89;100.00
13068;BME280;6600;51.362;6.686;2022-09-16T04:01:09;100581.94;;;12.86;100.00
13068;BME280;6600;51.362;6.686;2022-09-16T04:03:34;100580.81;;;12.82;100.00
13068;BME280;6600;51.362;6.686;2022-09-16T04:06:02;100572.50;;;12.84;100.00
13068;BME280;6600;51.362;6.686;2022-09-16T04:08:28;100579.84;;;12.77;100.00
13068;BME280;6600;51.362;6.686;2022-09-16T04:10:58;100582.06;;;12.80;100.00
13068;BME280;6600;51.362;6.686;2022-09-16T04:13:24;100579.50;;;12.85;100.00
13068;BME280;6600;51.362;6.686;2022-09-16T04:15:50;100576.81;;;12.85;100.00
13068;BME280;6600;51.362;6.686;2022-09-16T04:18:16;100576.13;;;12.89;100.00
13068;BME280;6600;51.362;6.686;2022-09-16T04:20:41;100575.78;;;12.86;100.00
13068;BME280;6600;51.362;6.686;2022-09-16T04:23:07;100568.75;;;12.85;100.00
13068;BME280;6600;51.362;6.686;2022-09-16T04:25:33;100562.69;;;12.78;100.00
13068;BME280;6600;51.362;6.686;2022-09-16T04:27:58;100557.78;;;12.75;100.00
13068;BME280;6600;51.362;6.686;2022-09-16T04:30:24;100558.59;;;12.75;100.00
13068;BME280;6600;51.362;6.686;2022-09-16T04:32:54;100568.16;;;12.71;100.00
13068;BME280;6600;51.362;6.686;2022-09-16T04:35:20;100571.53;;;12.66;100.00
13068;BME280;6600;51.362;6.686;2022-09-16T04:37:46;100564.41;;;12.60;100.00
13068;BME280;6600;51.362;6.686;2022-09-16T04:40:12;100565.94;;;12.56;100.00
13068;BME280;6600;51.362;6.686;2022-09-16T04:42:37;100565.94;;;12.56;100.00
13068;BME280;6600;51.362;6.686;2022-09-16T04:45:03;100560.56;;;12.56;100.00
13068;BME280;6600;51.362;6.686;2022-09-16T04:47:29;100564.75;;;12.52;100.00
13068;BME280;6600;51.362;6.686;2022-09-16T04:49:54;100556.47;;;12.54;100.00
13068;BME280;6600;51.362;6.686;2022-09-16T04:52:19;100564.28;;;12.55;100.00
13068;BME280;6600;51.362;6.686;2022-09-16T04:54:45;100566.75;;;12.57;100.00
13068;BME280;6600;51.362;6.686;2022-09-16T04:57:10;100566.28;;;12.60;100.00
13068;BME280;6600;51.362;6.686;2022-09-16T04:59:36;100567.94;;;12.61;100.00
13068;BME280;6600;51.362;6.686;2022-09-16T05:02:01;100561.13;;;12.58;100.00
13068;BME280;6600;51.362;6.686;2022-09-16T05:04:26;100572.94;;;12.57;100.00
13068;BME280;6600;51.362;6.686;2022-09-16T05:06:52;100564.53;;;12.65;100.00
13068;BME280;6600;51.362;6.686;2022-09-16T05:09:17;100575.75;;;12.62;100.00
13068;BME280;6600;51.362;6.686;2022-09-16T05:11:45;100570.38;;;12.62;100.00
13068;BME280;6600;51.362;6.686;2022-09-16T05:14:13;100569.91;;;12.65;100.00
13068;BME280;6600;51.362;6.686;2022-09-16T05:16:40;100567.22;;;12.65;100.00
13068;BME280;6600;51.362;6.686;2022-09-16T05:19:05;100577.38;;;12.63;100.00
13068;BME280;6600;51.362;6.686;2022-09-16T05:21:36;100565.00;;;12.62;100.00
13068;BME280;6600;51.362;6.686;2022-09-16T05:24:04;100564.41;;;12.60;100.00
13068;BME280;6600;51.362;6.686;2022-09-16T05:26:31;100569.44;;;12.57;100.00
13068;BME280;6600;51.362;6.686;2022-09-16T05:29:04;100563.38;;;12.61;100.00
13068;BME280;6600;51.362;6.686;2022-09-16T05:31:32;100569.75;;;12.49;100.00
13068;BME280;6600;51.362;6.686;2022-09-16T05:34:13;100570.59;;;12.49;100.00
13068;BME280;6600;51.362;6.686;2022-09-16T05:36:39;100572.69;;;12.47;100.00
13068;BME280;6600;51.362;6.686;2022-09-16T05:39:07;100572.09;;;12.45;100.00
13068;BME280;6600;51.362;6.686;2022-09-16T05:41:32;100580.63;;;12.42;100.00
13068;BME280;6600;51.362;6.686;2022-09-16T05:43:58;100582.28;;;12.43;100.00
13068;BME280;6600;51.362;6.686;2022-09-16T05:46:25;100586.47;;;12.39;100.00
13068;BME280;6600;51.362;6.686;2022-09-16T05:48:51;100576.53;;;12.40;100.00
13068;BME280;6600;51.362;6.686;2022-09-16T05:51:18;100577.72;;;12.44;100.00
13068;BME280;6600;51.362;6.686;2022-09-16T05:53:45;100574.06;;;12.38;100.00
13068;BME280;6600;51.362;6.686;2022-09-16T05:56:13;100571.63;;;12.37;100.00
13068;BME280;6600;51.362;6.686;2022-09-16T05:58:39;100570.91;;;12.41;100.00
13068;BME280;6600;51.362;6.686;2022-09-16T06:03:31;100581.81;;;12.46;100.00
13068;BME280;6600;51.362;6.686;2022-09-16T06:08:33;100585.06;;;12.48;100.00
13068;BME280;6600;51.362;6.686;2022-09-16T06:11:03;100583.81;;;12.51;100.00
13068;BME280;6600;51.362;6.686;2022-09-16T06:13:30;100582.06;;;12.56;100.00
13068;BME280;6600;51.362;6.686;2022-09-16T06:15:56;100584.06;;;12.61;100.00
13068;BME280;6600;51.362;6.686;2022-09-16T06:18:23;100586.03;;;12.65;100.00
13068;BME280;6600;51.362;6.686;2022-09-16T06:20:48;100585.00;;;12.66;100.00
13068;BME280;6600;51.362;6.686;2022-09-16T06:23:15;100594.22;;;12.71;100.00
13068;BME280;6600;51.362;6.686;2022-09-16T06:25:40;100589.22;;;12.74;100.00
13068;BME280;6600;51.362;6.686;2022-09-16T06:28:06;100585.59;;;12.69;100.00
13068;BME280;6600;51.362;6.686;2022-09-16T06:30:33;100591.66;;;12.76;100.00
13068;BME280;6600;51.362;6.686;2022-09-16T06:32:58;100580.88;;;12.76;100.00
13068;BME280;6600;51.362;6.686;2022-09-16T06:35:24;100584.06;;;12.84;100.00
13068;BME280;6600;51.362;6.686;2022-09-16T06:37:49;100586.63;;;12.91;100.00
13068;BME280;6600;51.362;6.686;2022-09-16T06:40:14;100586.78;;;12.96;100.00
13068;BME280;6600;51.362;6.686;2022-09-16T06:42:40;100594.25;;;12.94;100.00
13068;BME280;6600;51.362;6.686;2022-09-16T06:45:06;100582.19;;;12.96;100.00
13068;BME280;6600;51.362;6.686;2022-09-16T06:47:31;100589.94;;;12.93;100.00
13068;BME280;6600;51.362;6.686;2022-09-16T06:49:58;100593.28;;;13.00;100.00
13068;BME280;6600;51.362;6.686;2022-09-16T06:52:23;100585.72;;;13.08;100.00
13068;BME280;6600;51.362;6.686;2022-09-16T06:54:49;100589.69;;;13.18;100.00
13068;BME280;6600;51.362;6.686;2022-09-16T06:57:15;100580.94;;;13.22;100.00
13068;BME280;6600;51.362;6.686;2022-09-16T06:59:42;100582.09;;;13.26;100.00
13068;BME280;6600;51.362;6.686;2022-09-16T07:02:09;100584.09;;;13.31;100.00
13068;BME280;6600;51.362;6.686;2022-09-16T07:04:34;100583.47;;;13.40;100.00
13068;BME280;6600;51.362;6.686;2022-09-16T07:07:00;100595.50;;;13.49;100.00
13068;BME280;6600;51.362;6.686;2022-09-16T07:09:25;100586.81;;;13.59;100.00
13068;BME280;6600;51.362;6.686;2022-09-16T07:11:51;100590.78;;;13.68;100.00
13068;BME280;6600;51.362;6.686;2022-09-16T07:14:16;100594.38;;;13.85;100.00
13068;BME280;6600;51.362;6.686;2022-09-16T07:16:42;100601.13;;;13.88;100.00
13068;BME280;6600;51.362;6.686;2022-09-16T07:19:07;100598.44;;;13.88;100.00
13068;BME280;6600;51.362;6.686;2022-09-16T07:21:33;100605.00;;;13.92;100.00
13068;BME280;6600;51.362;6.686;2022-09-16T07:24:00;100609.00;;;13.89;100.00
13068;BME280;6600;51.362;6.686;2022-09-16T07:26:28;100611.41;;;14.02;100.00
13068;BME280;6600;51.362;6.686;2022-09-16T07:28:58;100615.25;;;14.06;100.00
13068;BME280;6600;51.362;6.686;2022-09-16T07:31:26;100615.78;;;14.20;100.00
13068;BME280;6600;51.362;6.686;2022-09-16T07:33:56;100617.88;;;14.18;100.00
13068;BME280;6600;51.362;6.686;2022-09-16T07:36:26;100620.41;;;14.36;100.00
13068;BME280;6600;51.362;6.686;2022-09-16T07:38:54;100614.28;;;14.41;100.00
13068;BME280;6600;51.362;6.686;2022-09-16T07:41:23;100620.41;;;14.36;100.00
13068;BME280;6600;51.362;6.686;2022-09-16T07:43:49;100613.38;;;14.35;100.00
13068;BME280;6600;51.362;6.686;2022-09-16T07:46:16;100619.47;;;14.31;100.00
13068;BME280;6600;51.362;6.686;2022-09-16T07:48:44;100622.84;;;14.38;100.00
13068;BME280;6600;51.362;6.686;2022-09-16T07:51:21;100626.78;;;14.47;100.00
13068;BME280;6600;51.362;6.686;2022-09-16T07:53:48;100622.22;;;14.47;100.00
13068;BME280;6600;51.362;6.686;2022-09-16T07:56:19;100618.63;;;14.58;100.00
13068;BME280;6600;51.362;6.686;2022-09-16T07:58:45;100630.72;;;14.73;100.00
13068;BME280;6600;51.362;6.686;2022-09-16T08:01:12;100626.97;;;14.74;100.00
13068;BME280;6600;51.362;6.686;2022-09-16T08:03:39;100632.47;;;14.79;100.00
13068;BME280;6600;51.362;6.686;2022-09-16T08:06:11;100636.13;;;14.73;100.00
13068;BME280;6600;51.362;6.686;2022-09-16T08:08:37;100634.66;;;14.82;100.00
13068;BME280;6600;51.362;6.686;2022-09-16T08:11:04;100641.22;;;14.86;100.00
13068;BME280;6600;51.362;6.686;2022-09-16T08:13:31;100635.06;;;14.90;100.00
13068;BME280;6600;51.362;6.686;2022-09-16T08:16:09;100635.97;;;14.96;100.00
13068;BME280;6600;51.362;6.686;2022-09-16T08:18:35;100631.38;;;15.13;100.00
13068;BME280;6600;51.362;6.686;2022-09-16T08:21:12;100636.28;;;15.16;97.63
13068;BME280;6600;51.362;6.686;2022-09-16T08:23:38;100636.63;;;15.20;98.95
13068;BME280;6600;51.362;6.686;2022-09-16T08:26:04;100632.69;;;15.27;99.31
13068;BME280;6600;51.362;6.686;2022-09-16T08:28:30;100635.44;;;15.32;98.33
13068;BME280;6600;51.362;6.686;2022-09-16T08:31:00;100627.59;;;15.31;96.55
13068;BME280;6600;51.362;6.686;2022-09-16T08:33:26;100629.13;;;15.43;96.29
13068;BME280;6600;51.362;6.686;2022-09-16T08:38:27;100635.75;;;15.52;96.17
13068;BME280;6600;51.362;6.686;2022-09-16T08:41:04;100639.47;;;15.68;94.85
13068;BME280;6600;51.362;6.686;2022-09-16T08:43:39;100629.34;;;16.02;95.85
13068;BME280;6600;51.362;6.686;2022-09-16T08:46:26;100637.25;;;16.08;93.31
13068;BME280;6600;51.362;6.686;2022-09-16T08:49:02;100630.59;;;16.16;92.65
13068;BME280;6600;51.362;6.686;2022-09-16T08:51:31;100637.84;;;16.37;93.24
13068;BME280;6600;51.362;6.686;2022-09-16T08:54:44;100650.63;;;16.47;90.68
13068;BME280;6600;51.362;6.686;2022-09-16T08:56:45;100645.78;;;16.49;90.41
13068;BME280;6600;51.362;6.686;2022-09-16T08:59:17;100648.38;;;16.60;90.49
13068;BME280;6600;51.362;6.686;2022-09-16T09:02:09;100649.59;;;16.75;90.36
13068;BME280;6600;51.362;6.686;2022-09-16T09:04:42;100657.41;;;17.03;89.06
13068;BME280;6600;51.362;6.686;2022-09-16T09:12:58;100648.47;;;16.71;89.67
13068;BME280;6600;51.362;6.686;2022-09-16T09:15:40;100649.66;;;16.85;88.56
13068;BME280;6600;51.362;6.686;2022-09-16T09:20:52;100657.50;;;16.86;88.32
13068;BME280;6600;51.362;6.686;2022-09-16T09:28:45;100645.88;;;16.32;88.95
13068;BME280;6600;51.362;6.686;2022-09-16T09:31:47;100653.97;;;16.27;86.58
13068;BME280;6600;51.362;6.686;2022-09-16T09:37:33;100646.34;;;16.78;84.08
13068;BME280;6600;51.362;6.686;2022-09-16T09:40:42;100637.72;;;16.81;82.96
13068;BME280;6600;51.362;6.686;2022-09-16T09:45:57;100642.16;;;16.92;82.51
13068;BME280;6600;51.362;6.686;2022-09-16T09:48:28;100636.75;;;16.97;80.60
13068;BME280;6600;51.362;6.686;2022-09-16T09:50:54;100636.81;;;16.70;79.67
13068;BME280;6600;51.362;6.686;2022-09-16T09:53:27;100640.78;;;16.57;79.54
13068;BME280;6600;51.362;6.686;2022-09-16T09:55:59;100626.44;;;16.94;80.41
13068;BME280;6600;51.362;6.686;2022-09-16T09:58:37;100629.06;;;17.15;78.58
13068;BME280;6600;51.362;6.686;2022-09-16T10:01:05;100632.47;;;17.01;80.02
13068;BME280;6600;51.362;6.686;2022-09-16T10:03:31;100632.09;;;16.87;80.56
13068;BME280;6600;51.362;6.686;2022-09-16T10:05:57;100624.44;;;17.16;80.93
13068;BME280;6600;51.362;6.686;2022-09-16T10:08:34;100619.28;;;17.09;79.78
13068;BME280;6600;51.362;6.686;2022-09-16T10:11:13;100630.41;;;17.13;80.80
13068;BME280;6600;51.362;6.686;2022-09-16T10:13:47;100628.69;;;17.07;80.73
13068;BME280;6600;51.362;6.686;2022-09-16T10:16:15;100632.16;;;16.97;79.64
13068;BME280;6600;51.362;6.686;2022-09-16T10:18:42;100630.75;;;16.90;80.07
13068;BME280;6600;51.362;6.686;2022-09-16T10:21:13;100628.81;;;17.22;80.36
13068;BME280;6600;51.362;6.686;2022-09-16T10:23:39;100621.91;;;17.46;79.81
13068;BME280;6600;51.362;6.686;2022-09-16T10:26:20;100618.28;;;17.73;78.22
13068;BME280;6600;51.362;6.686;2022-09-16T10:29:13;100619.94;;;17.84;75.43
13068;BME280;6600;51.362;6.686;2022-09-16T10:31:39;100622.72;;;18.04;77.17
13068;BME280;6600;51.362;6.686;2022-09-16T10:34:28;100614.63;;;18.14;79.82
13068;BME280;6600;51.362;6.686;2022-09-16T10:37:13;100611.69;;;18.46;82.05
13068;BME280;6600;51.362;6.686;2022-09-16T10:39:44;100613.00;;;18.13;77.50
13068;BME280;6600;51.362;6.686;2022-09-16T10:42:17;100606.94;;;17.81;77.54
13068;BME280;6600;51.362;6.686;2022-09-16T10:44:43;100600.94;;;17.69;77.72
13068;BME280;6600;51.362;6.686;2022-09-16T10:47:21;100607.03;;;17.49;79.69
13068;BME280;6600;51.362;6.686;2022-09-16T10:49:53;100614.63;;;17.47;80.35
13068;BME280;6600;51.362;6.686;2022-09-16T10:52:25;100616.47;;;17.41;80.65
13068;BME280;6600;51.362;6.686;2022-09-16T10:54:51;100600.16;;;17.31;80.77
13068;BME280;6600;51.362;6.686;2022-09-16T10:57:31;100612.50;;;17.12;78.88
13068;BME280;6600;51.362;6.686;2022-09-16T11:00:00;100607.63;;;17.14;78.60
13068;BME280;6600;51.362;6.686;2022-09-16T11:05:30;100614.75;;;17.20;77.90
13068;BME280;6600;51.362;6.686;2022-09-16T11:13:40;100621.03;;;16.62;81.53
13068;BME280;6600;51.362;6.686;2022-09-16T11:16:42;100638.53;;;16.54;82.56
13068;BME280;6600;51.362;6.686;2022-09-16T11:19:22;100638.91;;;15.88;87.90
13068;BME280;6600;51.362;6.686;2022-09-16T11:30:19;100643.13;;;14.00;100.00
13068;BME280;6600;51.362;6.686;2022-09-16T11:41:48;100643.75;;;13.91;100.00
13068;BME280;6600;51.362;6.686;2022-09-16T11:47:22;100657.31;;;14.24;100.00
13068;BME280;6600;51.362;6.686;2022-09-16T11:50:14;100671.25;;;14.44;100.00
13068;BME280;6600;51.362;6.686;2022-09-16T11:52:55;100669.69;;;14.48;100.00
13068;BME280;6600;51.362;6.686;2022-09-16T11:55:37;100671.69;;;14.41;100.00
13068;BME280;6600;51.362;6.686;2022-09-16T11:58:25;100670.75;;;14.47;100.00
13068;BME280;6600;51.362;6.686;2022-09-16T12:00:55;100668.63;;;14.49;100.00
13068;BME280;6600;51.362;6.686;2022-09-16T12:03:39;100671.38;;;14.38;97.42
13068;BME280;6600;51.362;6.686;2022-09-16T12:06:16;100667.97;;;14.59;96.97
13068;BME280;6600;51.362;6.686;2022-09-16T12:13:58;100666.78;;;15.00;96.41
13068;BME280;6600;51.362;6.686;2022-09-16T12:16:36;100662.97;;;14.96;95.56
13068;BME280;6600;51.362;6.686;2022-09-16T12:19:13;100666.16;;;15.09;94.31
13068;BME280;6600;51.362;6.686;2022-09-16T12:22:04;100658.53;;;15.23;96.00
13068;BME280;6600;51.362;6.686;2022-09-16T12:24:40;100663.16;;;15.28;94.45
13068;BME280;6600;51.362;6.686;2022-09-16T12:27:31;100662.59;;;15.26;91.51
13068;BME280;6600;51.362;6.686;2022-09-16T12:30:20;100662.31;;;14.89;89.97
13068;BME280;6600;51.362;6.686;2022-09-16T12:33:00;100663.25;;;14.83;92.11
13068;BME280;6600;51.362;6.686;2022-09-16T12:35:33;100660.09;;;14.86;93.58
13068;BME280;6600;51.362;6.686;2022-09-16T12:38:02;100659.66;;;14.60;93.53
13068;BME280;6600;51.362;6.686;2022-09-16T12:52:03;100642.50;;;15.16;94.60
13068;BME280;6600;51.362;6.686;2022-09-16T12:55:41;100633.09;;;15.19;93.62
13068;BME280;6600;51.362;6.686;2022-09-16T13:03:31;100632.19;;;15.30;92.81
13068;BME280;6600;51.362;6.686;2022-09-16T13:06:03;100629.03;;;15.38;92.09
13068;BME280;6600;51.362;6.686;2022-09-16T13:08:30;100636.50;;;15.70;93.78
13068;BME280;6600;51.362;6.686;2022-09-16T13:10:58;100649.41;;;16.06;92.45
13068;BME280;6600;51.362;6.686;2022-09-16T13:13:34;100647.16;;;16.25;90.98
13068;BME280;6600;51.362;6.686;2022-09-16T13:16:02;100645.78;;;16.22;91.87
13068;BME280;6600;51.362;6.686;2022-09-16T13:18:50;100638.22;;;16.24;91.72
13068;BME280;6600;51.362;6.686;2022-09-16T13:21:36;100639.34;;;16.28;94.17
13068;BME280;6600;51.362;6.686;2022-09-16T13:24:12;100638.31;;;16.07;92.53
13068;BME280;6600;51.362;6.686;2022-09-16T13:26:44;100636.13;;;15.83;93.73
13068;BME280;6600;51.362;6.686;2022-09-16T13:29:42;100642.59;;;15.60;95.81
13068;BME280;6600;51.362;6.686;2022-09-16T13:32:27;100657.53;;;15.29;97.85
13068;BME280;6600;51.362;6.686;2022-09-16T13:35:04;100648.78;;;15.22;97.83
13068;BME280;6600;51.362;6.686;2022-09-16T13:37:30;100649.94;;;15.26;99.03
13068;BME280;6600;51.362;6.686;2022-09-16T13:39:55;100654.84;;;15.29;98.91
13068;BME280;6600;51.362;6.686;2022-09-16T13:42:20;100658.53;;;15.23;98.14
13068;BME280;6600;51.362;6.686;2022-09-16T13:44:46;100643.63;;;15.37;99.97
13068;BME280;6600;51.362;6.686;2022-09-16T13:47:13;100646.00;;;15.50;99.68
13068;BME280;6600;51.362;6.686;2022-09-16T13:52:12;100658.03;;;15.26;92.09
13068;BME280;6600;51.362;6.686;2022-09-16T13:54:46;100650.28;;;15.13;91.60
13068;BME280;6600;51.362;6.686;2022-09-16T14:00:09;100656.91;;;15.05;93.24
13068;BME280;6600;51.362;6.686;2022-09-16T14:03:08;100648.53;;;15.07;91.95
13068;BME280;6600;51.362;6.686;2022-09-16T14:06:00;100645.44;;;15.15;91.65
13068;BME280;6600;51.362;6.686;2022-09-16T14:11:17;100640.78;;;14.94;92.58
13068;BME280;6600;51.362;6.686;2022-09-16T14:13:55;100644.78;;;15.08;91.52
13068;BME280;6600;51.362;6.686;2022-09-16T14:16:23;100648.28;;;15.25;92.78
13068;BME280;6600;51.362;6.686;2022-09-16T14:19:24;100633.78;;;15.31;91.67
13068;BME280;6600;51.362;6.686;2022-09-16T14:24:36;100634.91;;;15.52;90.31
13068;BME280;6600;51.362;6.686;2022-09-16T14:27:04;100630.97;;;15.59;89.78
13068;BME280;6600;51.362;6.686;2022-09-16T14:29:30;100632.63;;;15.60;89.02
13068;BME280;6600;51.362;6.686;2022-09-16T14:31:56;100631.06;;;15.64;88.95
13068;BME280;6600;51.362;6.686;2022-09-16T14:34:32;100629.84;;;15.55;90.56
13068;BME280;6600;51.362;6.686;2022-09-16T14:36:59;100631.94;;;15.70;90.06
13068;BME280;6600;51.362;6.686;2022-09-16T14:39:26;100633.09;;;15.79;89.08
13068;BME280;6600;51.362;6.686;2022-09-16T14:49:16;100632.59;;;16.04;87.55
13068;BME280;6600;51.362;6.686;2022-09-16T14:51:44;100637.28;;;16.13;87.58
13068;BME280;6600;51.362;6.686;2022-09-16T14:54:17;100634.88;;;16.12;87.75
13068;BME280;6600;51.362;6.686;2022-09-16T14:56:56;100628.84;;;16.05;88.10
13068;BME280;6600;51.362;6.686;2022-09-16T14:59:25;100634.31;;;16.10;88.47
13068;BME280;6600;51.362;6.686;2022-09-16T15:01:54;100636.00;;;16.16;88.80
13068;BME280;6600;51.362;6.686;2022-09-16T15:04:28;100632.19;;;16.17;88.19
13068;BME280;6600;51.362;6.686;2022-09-16T15:07:00;100628.63;;;16.11;88.04
13068;BME280;6600;51.362;6.686;2022-09-16T15:12:18;100626.69;;;16.07;87.57
13068;BME280;6600;51.362;6.686;2022-09-16T15:14:46;100629.84;;;15.99;88.01
13068;BME280;6600;51.362;6.686;2022-09-16T15:17:17;100628.72;;;15.95;87.39
13068;BME280;6600;51.362;6.686;2022-09-16T15:19:48;100631.94;;;15.92;88.93
13068;BME280;6600;51.362;6.686;2022-09-16T15:22:15;100623.41;;;15.78;87.90
13068;BME280;6600;51.362;6.686;2022-09-16T15:24:41;100628.47;;;15.75;88.42
13068;BME280;6600;51.362;6.686;2022-09-16T15:27:07;100637.78;;;15.84;89.62
13068;BME280;6600;51.362;6.686;2022-09-16T15:29:35;100631.09;;;15.70;90.07
13068;BME280;6600;51.362;6.686;2022-09-16T15:32:17;100625.31;;;15.83;90.61
13068;BME280;6600;51.362;6.686;2022-09-16T15:34:44;100628.59;;;15.85;90.30
13068;BME280;6600;51.362;6.686;2022-09-16T15:37:28;100628.34;;;15.64;92.41
13068;BME280;6600;51.362;6.686;2022-09-16T15:39:54;100626.09;;;15.56;92.83
13068;BME280;6600;51.362;6.686;2022-09-16T15:42:20;100621.81;;;15.60;94.11